Terminal Aerodrome Forecast
Issued by NWS Springfield, MO

Home | Current Version | Previous Version | Text Only | Print | Product List | Glossary On
Versions: 1 2 3 4 5 6 7 8 9 10 11 12 13
000
FTUS43 KSGF 210520
TAFSGF
TAF
KSGF 210520Z 2106/2206 19010KT P6SM BKN250 WS020/23040KT
     FM211600 27010KT P6SM BKN250
     FM211800 33012KT P6SM BKN250
     FM212000 35015G23KT P6SM SCT250
     FM220000 36012KT P6SM SKC=

USA.gov is the U.S. government's official web portal to all federal, state and local government web resources and services.